»·PEaware :: EJA827 KSJC-KSAN

EJA827 :: KSJC-KSAN

FLIGHT INFORMATION

Flight Status: Arrived
Operator:
Netjets Aviation
More flights by this operator :: More flights under this callsign
Pilot: Anonymous 31865 (31865)
Aircraft: GULFSTREAM G-1159C GULFSTREAM 4
(GLF4)
More flights by this aircraft type
Origin: KSJC Mineta San Jose Intl
United States
Destination: KSAN San Diego Intl-Lindbergh
United States
More flights between these airports :: More routes between these airports
Route: TECKY3 EBAYE AVE FIM J1 LAX COMIX2
File this flight plan on PilotEdge
Remarks:
Altitude:
(Current/Filed)
39,000ft
Speed:
(Current/Filed)
475kts
Departed: 23-Dec-20 11:07 AM
Arrived: 23-Dec-20 12:07 PM
Distance/Time
Traveled:
363nm/1:00
Distance/Time
To Go:
Arrived

Flight Plot

Page will automatically refresh every two minutes.

Flight plan parsing failed; only flown route is shown


Map Options




Map Legend


Flown Route
Filed Route
Departure Airport
Arrival Airport
Navaid (VOR, NDB)
Fix

Horizontal Profiles

Position Reports

Time Latitude Longitude Heading Altitude Ground
Speed
23-Dec-20 10:45 37.357822 -121.929995 334 70ft 0kts
23-Dec-20 10:48 37.357822 -121.929995 334 70ft 0kts
23-Dec-20 10:49 37.357822 -121.929995 334 70ft 0kts
23-Dec-20 10:50 37.357822 -121.929995 334 70ft 0kts
23-Dec-20 10:51 37.357822 -121.929995 334 70ft 0kts
23-Dec-20 10:52 37.357822 -121.929995 334 70ft 0kts
23-Dec-20 10:53 37.357822 -121.929995 334 70ft 0kts
23-Dec-20 10:54 37.357822 -121.929995 334 70ft 0kts
23-Dec-20 10:55 37.357822 -121.929995 334 70ft 0kts
23-Dec-20 10:56 37.357822 -121.929995 334 70ft 0kts
23-Dec-20 10:57 37.357822 -121.929995 334 70ft 0kts
23-Dec-20 10:58 37.357822 -121.929995 334 70ft 0kts
23-Dec-20 10:59 37.357936 -121.930062 335 70ft 5kts
23-Dec-20 11:00 37.357720 -121.928857 139 70ft 8kts
23-Dec-20 11:01 37.356284 -121.926420 47 70ft 9kts
23-Dec-20 11:02 37.355656 -121.924147 138 70ft 11kts
23-Dec-20 11:03 37.353035 -121.921288 139 70ft 14kts
23-Dec-20 11:04 37.352091 -121.919918 81 70ft 0kts
23-Dec-20 11:05 37.353289 -121.919576 319 70ft 19kts
23-Dec-20 11:06 37.382009 -121.950791 319 1151ft 194kts
23-Dec-20 11:07 37.424715 -121.954866 77 3400ft 204kts
23-Dec-20 11:08 37.395664 -121.885215 129 5000ft 271kts
23-Dec-20 11:09 37.347341 -121.815290 130 7132ft 268kts
23-Dec-20 11:10 37.293712 -121.748341 136 10142ft 280kts
23-Dec-20 11:11 37.226228 -121.671827 136 13454ft 354kts
23-Dec-20 11:12 37.151363 -121.587160 136 16859ft 375kts
23-Dec-20 11:13 37.071267 -121.496849 135 20277ft 403kts
23-Dec-20 11:14 36.986677 -121.405961 142 24278ft 405kts
23-Dec-20 11:15 36.897706 -121.311298 144 28260ft 439kts
23-Dec-20 11:16 36.804125 -121.212009 145 32243ft 450kts
23-Dec-20 11:17 36.706781 -121.109065 144 36226ft 465kts
23-Dec-20 11:18 36.607822 -121.004919 144 39276ft 486kts
23-Dec-20 11:19 36.499053 -120.894080 144 39274ft 504kts
23-Dec-20 11:20 36.390986 -120.784512 144 39267ft 503kts
23-Dec-20 11:21 36.282617 -120.675042 144 39274ft 503kts
23-Dec-20 11:23 36.174004 -120.565685 144 39276ft 503kts
23-Dec-20 11:24 36.065309 -120.456672 144 39271ft 503kts
23-Dec-20 11:25 35.956834 -120.348308 145 39293ft 503kts
23-Dec-20 11:26 35.850641 -120.236415 139 39281ft 505kts
23-Dec-20 11:27 35.752485 -120.112451 137 39284ft 507kts
23-Dec-20 11:28 35.654393 -119.988210 141 39306ft 505kts
23-Dec-20 11:29 35.541897 -119.887614 149 39293ft 500kts
23-Dec-20 11:30 35.428131 -119.789409 149 39303ft 502kts
23-Dec-20 11:31 35.312856 -119.690301 149 39320ft 509kts
23-Dec-20 11:32 35.197301 -119.591278 149 39322ft 508kts
23-Dec-20 11:33 35.081458 -119.492368 148 39324ft 509kts
23-Dec-20 11:34 34.965390 -119.393492 150 39282ft 509kts
23-Dec-20 11:35 34.849448 -119.295243 153 39182ft 506kts
23-Dec-20 11:36 34.733563 -119.197384 152 39225ft 507kts
23-Dec-20 11:37 34.618033 -119.100110 153 39232ft 507kts
23-Dec-20 11:38 34.501752 -119.002514 153 39195ft 510kts
23-Dec-20 11:38 34.405776 -118.922230 154 38371ft 500kts
23-Dec-20 11:40 34.277967 -118.797305 146 36114ft 521kts
23-Dec-20 11:40 34.187037 -118.700571 146 34490ft 519kts
23-Dec-20 11:41 34.078478 -118.585557 145 32531ft 524kts
23-Dec-20 11:43 33.950929 -118.450851 142 29721ft 510kts
23-Dec-20 11:43 33.869858 -118.350074 134 27720ft 498kts
23-Dec-20 11:44 33.777994 -118.231339 132 25247ft 471kts
23-Dec-20 11:45 33.691245 -118.117362 130 23186ft 450kts
23-Dec-20 11:46 33.609482 -118.010219 129 21168ft 425kts
23-Dec-20 11:47 33.530579 -117.910062 132 19377ft 403kts
23-Dec-20 11:48 33.450948 -117.817681 132 17978ft 392kts
23-Dec-20 11:49 33.371202 -117.731509 135 16576ft 378kts
23-Dec-20 11:50 33.294296 -117.649432 135 15374ft 365kts
23-Dec-20 11:51 33.219473 -117.570116 135 14702ft 345kts
23-Dec-20 11:52 33.150435 -117.497439 136 12764ft 318kts
23-Dec-20 11:53 33.082016 -117.437554 143 11373ft 306kts
23-Dec-20 11:54 33.016283 -117.382588 144 9693ft 277kts
23-Dec-20 11:55 32.953647 -117.330112 146 8968ft 275kts
23-Dec-20 11:56 32.891879 -117.278616 146 8576ft 268kts
23-Dec-20 11:57 32.830559 -117.227665 145 7569ft 268kts
23-Dec-20 11:58 32.798626 -117.152926 103 6539ft 250kts
23-Dec-20 11:59 32.781600 -117.076627 103 5987ft 233kts
23-Dec-20 12:00 32.756216 -117.006242 113 4991ft 232kts
23-Dec-20 12:01 32.716545 -116.954788 189 4000ft 221kts
23-Dec-20 12:02 32.680144 -116.998772 291 3274ft 205kts
23-Dec-20 12:03 32.700982 -117.056356 287 2368ft 176kts
23-Dec-20 12:04 32.714311 -117.110352 287 1450ft 149kts
23-Dec-20 12:05 32.725188 -117.155444 287 554ft 137kts
23-Dec-20 12:06 32.734238 -117.192478 285 25ft 23kts
23-Dec-20 12:07 32.733942 -117.195063 178 25ft 0kts
23-Dec-20 12:08 32.733910 -117.195058 171 25ft 3kts
23-Dec-20 12:09 32.733166 -117.192279 101 25ft 9kts
23-Dec-20 12:10 32.734647 -117.189474 106 25ft 17kts
23-Dec-20 12:11 32.733347 -117.184101 105 25ft 16kts
23-Dec-20 12:12 32.732704 -117.179792 17 25ft 8kts
23-Dec-20 12:13 32.733754 -117.178906 92 25ft 0kts

Navigation Log

Ident Type
Flight plan parsing failed, navigation log unavailable